createdAt,value
2024-05-09T00:01:07.735Z,92.76
2024-05-09T00:03:37.047Z,93.00
2024-05-09T00:06:06.412Z,92.60
2024-05-09T00:08:35.975Z,92.44
2024-05-09T00:11:05.539Z,92.74
2024-05-09T00:13:34.822Z,92.55
2024-05-09T00:16:04.154Z,92.49
2024-05-09T00:18:33.566Z,92.93
2024-05-09T00:21:07.965Z,93.17
2024-05-09T00:23:37.320Z,93.20
2024-05-09T00:26:06.711Z,93.78
2024-05-09T00:28:36.014Z,93.96
2024-05-09T00:31:05.410Z,93.45
2024-05-09T00:33:34.917Z,93.02
2024-05-09T00:36:04.407Z,92.69
2024-05-09T00:38:33.711Z,93.07
2024-05-09T00:41:03.037Z,92.59
2024-05-09T00:43:32.568Z,92.79
2024-05-09T00:46:01.940Z,93.54
2024-05-09T00:48:31.610Z,93.36
2024-05-09T00:51:01.150Z,93.24
2024-05-09T00:53:30.913Z,92.94
2024-05-09T00:56:00.493Z,93.08
2024-05-09T00:58:33.132Z,93.91
2024-05-09T01:01:03.038Z,93.38
2024-05-09T01:03:32.702Z,93.51
2024-05-09T01:06:02.186Z,93.04
2024-05-09T01:08:31.565Z,92.99
2024-05-09T01:11:01.004Z,93.03
2024-05-09T01:13:30.446Z,92.82
2024-05-09T01:15:59.790Z,92.73
2024-05-09T01:18:30.112Z,92.73
2024-05-09T01:20:59.427Z,92.78
2024-05-09T01:23:28.768Z,93.02
2024-05-09T01:25:58.072Z,93.26
2024-05-09T01:28:27.397Z,93.13
2024-05-09T01:30:56.784Z,93.02
2024-05-09T01:33:26.423Z,93.06
2024-05-09T01:35:55.984Z,92.84
2024-05-09T01:38:25.256Z,93.08
2024-05-09T01:40:54.509Z,92.87
2024-05-09T01:43:23.869Z,93.11
2024-05-09T01:45:53.116Z,93.67
2024-05-09T01:48:22.519Z,93.54
2024-05-09T01:50:51.883Z,93.62
2024-05-09T01:53:21.221Z,93.08
2024-05-09T01:55:50.525Z,93.02
2024-05-09T01:58:20.383Z,93.03
2024-05-09T02:00:49.893Z,92.19
2024-05-09T02:03:19.454Z,93.13
2024-05-09T02:05:52.241Z,93.85
2024-05-09T02:08:22.427Z,93.37
2024-05-09T02:10:51.971Z,92.30
2024-05-09T02:13:21.308Z,92.75
2024-05-09T02:15:52.374Z,92.76
2024-05-09T02:18:21.817Z,93.54
2024-05-09T02:20:51.207Z,94.06
2024-05-09T02:23:20.557Z,94.64
2024-05-09T02:25:49.989Z,94.60
2024-05-09T02:28:23.477Z,94.08
2024-05-09T02:30:52.747Z,93.24
2024-05-09T02:33:22.377Z,92.75
2024-05-09T02:35:51.874Z,93.03
2024-05-09T02:38:21.309Z,93.06
2024-05-09T02:40:50.645Z,93.08
2024-05-09T02:43:19.951Z,92.20
2024-05-09T02:45:49.280Z,92.38
2024-05-09T02:48:18.747Z,92.22
2024-05-09T02:50:48.104Z,92.21
2024-05-09T02:53:17.494Z,92.58
2024-05-09T02:55:47.130Z,92.70
2024-05-09T02:58:16.424Z,93.99
2024-05-09T03:00:45.800Z,93.60
2024-05-09T03:03:15.863Z,93.35
2024-05-09T03:05:45.779Z,93.66
2024-05-09T03:08:15.490Z,93.53
2024-05-09T03:10:44.888Z,93.65
2024-05-09T03:13:15.969Z,93.59
2024-05-09T03:15:45.852Z,93.59
2024-05-09T03:18:16.727Z,93.28
2024-05-09T03:20:46.288Z,93.74
2024-05-09T03:23:24.023Z,94.09
2024-05-09T03:25:54.171Z,95.12
2024-05-09T03:28:23.544Z,94.74
2024-05-09T03:30:53.079Z,94.38
2024-05-09T03:33:22.767Z,94.25
2024-05-09T03:35:52.412Z,94.21
2024-05-09T03:38:21.707Z,93.40
2024-05-09T03:40:51.599Z,93.16
2024-05-09T03:43:21.090Z,93.18
2024-05-09T03:45:50.999Z,93.20
2024-05-09T03:48:20.541Z,93.23
2024-05-09T03:50:50.559Z,93.59
2024-05-09T03:53:19.869Z,93.96
2024-05-09T03:55:49.209Z,92.96
2024-05-09T03:58:18.951Z,92.43
2024-05-09T04:00:48.283Z,92.60
2024-05-09T04:03:17.952Z,92.57
2024-05-09T04:05:47.447Z,93.13
2024-05-09T04:08:16.844Z,93.65
2024-05-09T04:10:46.620Z,93.62
2024-05-09T04:13:15.978Z,93.70
2024-05-09T04:15:45.221Z,92.88
2024-05-09T04:18:14.632Z,92.88
2024-05-09T04:20:43.935Z,93.02
2024-05-09T04:23:14.718Z,92.80
2024-05-09T04:25:45.672Z,92.66
2024-05-09T04:28:15.452Z,93.23
2024-05-09T04:30:44.728Z,93.39
2024-05-09T04:33:15.768Z,92.87
2024-05-09T04:35:45.921Z,92.88
2024-05-09T04:38:15.849Z,93.19
2024-05-09T04:40:45.469Z,93.45
2024-05-09T04:43:19.569Z,93.85
2024-05-09T04:45:48.908Z,94.19
2024-05-09T04:48:18.366Z,94.17
2024-05-09T04:50:47.741Z,94.46
2024-05-09T04:53:17.951Z,94.92
2024-05-09T04:55:47.500Z,95.92
2024-05-09T04:58:16.861Z,95.28
2024-05-09T05:00:46.298Z,94.90
2024-05-09T05:03:16.695Z,94.76
2024-05-09T05:05:46.794Z,94.58
2024-05-09T05:08:17.831Z,94.63
2024-05-09T05:10:48.875Z,94.63
2024-05-09T05:13:23.697Z,94.71
2024-05-09T05:15:58.406Z,94.17
2024-05-09T05:18:28.754Z,93.92
2024-05-09T05:20:58.759Z,93.49
2024-05-09T05:23:28.307Z,93.30
2024-05-09T05:25:57.675Z,93.34
2024-05-09T05:28:26.983Z,93.17
2024-05-09T05:30:56.226Z,92.62
2024-05-09T05:33:25.587Z,90.68
2024-05-09T05:35:55.630Z,90.68
2024-05-09T05:38:27.989Z,89.79
2024-05-09T05:40:56.141Z,88.74
2024-05-09T05:43:25.638Z,88.42
2024-05-09T05:45:54.913Z,88.67
2024-05-09T05:48:24.537Z,88.69
2024-05-09T05:50:53.875Z,88.86
2024-05-09T05:53:23.242Z,88.93
2024-05-09T05:55:52.632Z,89.08
2024-05-09T05:58:22.423Z,89.65
2024-05-09T06:00:53.522Z,89.67
2024-05-09T06:03:23.104Z,89.79
2024-05-09T06:05:52.498Z,89.72
2024-05-09T06:08:21.957Z,89.74
2024-05-09T06:10:51.504Z,89.54
2024-05-09T06:13:20.846Z,89.26
2024-05-09T06:15:50.090Z,89.27
2024-05-09T06:18:20.860Z,89.19
2024-05-09T06:20:50.297Z,89.18
2024-05-09T06:23:19.777Z,87.78
2024-05-09T06:25:49.188Z,86.70
2024-05-09T06:28:18.499Z,87.08
2024-05-09T06:30:47.800Z,86.85
2024-05-09T06:33:17.381Z,87.23
2024-05-09T06:35:47.888Z,87.15
2024-05-09T06:38:17.440Z,87.78
2024-05-09T06:40:46.789Z,87.70
2024-05-09T06:43:18.713Z,87.09
2024-05-09T06:45:53.165Z,87.21
2024-05-09T06:48:23.265Z,86.46
2024-05-09T06:50:52.865Z,86.47
2024-05-09T06:53:23.496Z,85.19
2024-05-09T06:55:52.976Z,84.82
2024-05-09T06:58:22.317Z,84.82
2024-05-09T07:00:51.670Z,84.48
2024-05-09T07:03:21.207Z,84.56
2024-05-09T07:05:50.581Z,83.62
2024-05-09T07:08:19.979Z,83.32
2024-05-09T07:10:49.748Z,83.10
2024-05-09T07:13:19.082Z,83.08
2024-05-09T07:15:48.384Z,80.72
2024-05-09T07:18:20.439Z,81.08
2024-05-09T07:20:50.842Z,80.62
2024-05-09T07:23:20.352Z,81.88
2024-05-09T07:25:49.780Z,79.80
2024-05-09T07:28:21.251Z,79.84
2024-05-09T07:33:31.978Z,79.64
2024-05-09T07:36:01.407Z,77.92
2024-05-09T07:38:30.716Z,79.03
2024-05-09T07:41:00.113Z,78.68
2024-05-09T07:43:29.430Z,77.35
2024-05-09T07:46:23.016Z,78.17
2024-05-09T07:50:01.354Z,78.51
2024-05-09T07:53:07.583Z,76.80
2024-05-09T07:53:40.577Z,76.96
2024-05-09T07:56:02.837Z,76.29
2024-05-09T07:58:32.244Z,77.75
2024-05-09T08:01:03.267Z,76.36
2024-05-09T08:03:34.642Z,75.54
2024-05-09T08:06:04.340Z,75.54
2024-05-09T08:08:33.628Z,75.20
2024-05-09T08:11:03.722Z,75.09
2024-05-09T08:13:33.064Z,74.43
2024-05-09T08:16:02.407Z,74.54
2024-05-09T08:18:32.248Z,70.76
2024-05-09T08:21:01.609Z,70.76
2024-05-09T08:23:30.991Z,70.74
2024-05-09T08:26:01.193Z,70.89
2024-05-09T08:28:30.575Z,70.77
2024-05-09T08:31:02.401Z,70.77
2024-05-09T08:33:32.148Z,70.76
2024-05-09T08:36:01.545Z,72.46
2024-05-09T08:38:30.807Z,72.46
2024-05-09T08:41:00.497Z,71.39
2024-05-09T08:43:30.889Z,69.66
2024-05-09T08:46:00.846Z,68.33
2024-05-09T08:48:31.234Z,70.28
2024-05-09T08:51:01.287Z,69.24
2024-05-09T08:53:30.541Z,67.63
2024-05-09T08:56:01.938Z,65.96
2024-05-09T08:58:31.610Z,66.67
2024-05-09T09:01:01.632Z,66.31
2024-05-09T09:03:33.488Z,67.25
2024-05-09T09:06:11.389Z,67.25
2024-05-09T09:08:40.947Z,66.24
2024-05-09T09:11:10.702Z,63.10
2024-05-09T09:13:39.924Z,61.98
2024-05-09T09:16:09.333Z,61.98
2024-05-09T09:18:39.039Z,60.74
2024-05-09T09:21:12.975Z,59.86
2024-05-09T09:23:42.270Z,59.33
2024-05-09T09:26:14.856Z,57.49
2024-05-09T09:28:45.910Z,56.39
2024-05-09T09:31:18.480Z,56.09
2024-05-09T09:33:48.262Z,51.92
2024-05-09T09:36:18.244Z,51.92
2024-05-09T09:38:48.201Z,54.17
2024-05-09T09:41:20.003Z,56.12
2024-05-09T09:43:49.635Z,56.62
2024-05-09T09:46:19.331Z,56.54
2024-05-09T09:48:49.534Z,56.62
2024-05-09T09:51:18.887Z,52.70
2024-05-09T09:53:48.836Z,55.67
2024-05-09T09:56:18.678Z,52.06
2024-05-09T09:58:48.021Z,50.99
2024-05-09T10:01:17.447Z,53.53
2024-05-09T10:03:47.087Z,47.43
2024-05-09T10:06:17.170Z,48.19
2024-05-09T10:08:47.909Z,49.38
2024-05-09T10:11:21.945Z,49.24
2024-05-09T10:13:53.587Z,45.61
2024-05-09T10:16:23.098Z,47.23
2024-05-09T10:18:53.006Z,47.33
2024-05-09T10:21:22.897Z,43.97
2024-05-09T10:24:02.577Z,44.28
2024-05-09T10:26:37.110Z,43.70
2024-05-09T10:29:16.743Z,42.93
2024-05-09T10:31:47.404Z,42.76
2024-05-09T10:34:24.364Z,44.10
2024-05-09T10:36:54.820Z,43.65
2024-05-09T10:39:26.223Z,46.18
2024-05-09T10:41:55.495Z,46.95
2024-05-09T10:44:24.821Z,47.16
2024-05-09T10:46:54.581Z,49.52
2024-05-09T10:49:24.245Z,50.66
2024-05-09T10:51:54.234Z,51.18
2024-05-09T10:54:23.587Z,51.82
2024-05-09T10:56:59.749Z,52.87
2024-05-09T10:59:33.909Z,54.87
2024-05-09T11:02:05.508Z,52.92
2024-05-09T11:04:36.270Z,54.44
2024-05-09T11:07:13.535Z,52.58
2024-05-09T11:09:43.870Z,55.68
2024-05-09T11:12:13.259Z,54.66
2024-05-09T11:14:53.400Z,52.73
2024-05-09T11:17:22.854Z,53.71
2024-05-09T11:19:52.216Z,53.15
2024-05-09T11:22:23.283Z,54.50
2024-05-09T11:24:54.292Z,53.51
2024-05-09T11:27:24.806Z,53.89
2024-05-09T11:29:54.068Z,53.35
2024-05-09T11:32:30.673Z,52.23
2024-05-09T11:35:00.062Z,49.94
2024-05-09T11:37:30.971Z,52.23
2024-05-09T11:40:01.099Z,50.39
2024-05-09T11:42:30.451Z,52.40
2024-05-09T11:45:00.286Z,52.41
2024-05-09T11:47:30.394Z,51.06
2024-05-09T11:49:59.921Z,53.25
2024-05-09T11:52:29.365Z,53.82
2024-05-09T11:54:58.921Z,53.54
2024-05-09T11:57:29.361Z,53.40
2024-05-09T11:59:58.666Z,53.30
2024-05-09T12:02:28.078Z,53.35
2024-05-09T12:04:57.455Z,53.21
2024-05-09T12:07:26.844Z,50.97
2024-05-09T12:09:56.181Z,51.54
2024-05-09T12:12:25.479Z,51.28
2024-05-09T12:14:54.838Z,51.32
2024-05-09T12:17:24.238Z,52.53
2024-05-09T12:19:53.544Z,54.06
2024-05-09T12:22:22.832Z,53.30
2024-05-09T12:24:52.185Z,54.47
2024-05-09T12:27:21.566Z,55.87
2024-05-09T12:29:50.887Z,54.91
2024-05-09T12:32:20.332Z,52.50
2024-05-09T12:34:49.565Z,51.70
2024-05-09T12:37:19.049Z,50.32
2024-05-09T12:39:48.496Z,50.95
2024-05-09T12:42:26.581Z,52.14
2024-05-09T12:44:48.887Z,52.99
2024-05-09T12:47:18.268Z,52.98
2024-05-09T12:49:47.626Z,52.78
2024-05-09T12:52:17.012Z,51.19
2024-05-09T12:54:46.310Z,52.62
2024-05-09T12:57:15.647Z,51.48
2024-05-09T12:59:44.986Z,51.68
2024-05-09T13:02:16.068Z,54.55
2024-05-09T13:04:45.632Z,53.49
2024-05-09T13:07:15.543Z,52.12
2024-05-09T13:09:45.008Z,52.67
2024-05-09T13:12:14.303Z,52.61
2024-05-09T13:14:43.639Z,53.31
2024-05-09T13:17:12.985Z,53.41
2024-05-09T13:19:42.285Z,53.41
2024-05-09T13:22:11.820Z,54.60
2024-05-09T13:24:41.226Z,55.55
2024-05-09T13:27:10.942Z,54.24
2024-05-09T13:29:43.722Z,55.20
2024-05-09T13:32:11.156Z,52.63
2024-05-09T13:34:40.571Z,54.19
2024-05-09T13:37:10.006Z,54.41
2024-05-09T13:39:39.371Z,55.15
2024-05-09T13:42:08.624Z,57.21
2024-05-09T13:44:37.921Z,58.59
2024-05-09T13:47:07.266Z,57.10
2024-05-09T13:49:36.586Z,58.86
2024-05-09T13:52:06.185Z,59.81
2024-05-09T13:54:36.754Z,57.97
2024-05-09T13:57:06.406Z,57.22
2024-05-09T13:59:35.711Z,58.25
2024-05-09T14:02:05.319Z,58.93
2024-05-09T14:04:34.985Z,56.79
2024-05-09T14:07:04.466Z,59.24
2024-05-09T14:09:33.908Z,56.74
2024-05-09T14:12:03.202Z,55.06
2024-05-09T14:14:32.424Z,55.31
2024-05-09T14:17:01.738Z,56.53
2024-05-09T14:19:31.017Z,55.29
2024-05-09T14:22:00.308Z,55.48
2024-05-09T14:24:29.584Z,57.76
2024-05-09T14:26:59.026Z,54.51
2024-05-09T14:29:28.556Z,54.51
2024-05-09T14:31:57.842Z,53.04
2024-05-09T14:34:27.855Z,48.87
2024-05-09T14:36:58.647Z,46.46
2024-05-09T14:39:27.911Z,45.99
2024-05-09T14:41:57.189Z,47.39
2024-05-09T14:44:26.456Z,42.25
2024-05-09T14:46:55.861Z,42.49
2024-05-09T14:49:25.170Z,47.19
2024-05-09T14:51:54.583Z,47.19
2024-05-09T14:54:23.833Z,48.09
2024-05-09T14:56:54.576Z,47.99
2024-05-09T14:59:23.913Z,46.72
2024-05-09T15:01:53.344Z,49.24
2024-05-09T15:04:23.145Z,51.38
2024-05-09T15:06:52.563Z,53.27
2024-05-09T15:09:21.852Z,53.27
2024-05-09T15:11:51.186Z,51.50
2024-05-09T15:14:20.537Z,50.49
2024-05-09T15:16:50.533Z,52.06
2024-05-09T15:19:20.193Z,49.74
2024-05-09T15:21:49.944Z,50.74
2024-05-09T15:24:19.346Z,52.55
2024-05-09T15:26:48.625Z,51.87
2024-05-09T15:29:17.981Z,51.25
2024-05-09T15:31:47.302Z,50.31
2024-05-09T15:34:16.654Z,46.92
2024-05-09T15:36:47.652Z,43.04
2024-05-09T15:39:17.368Z,43.44
2024-05-09T15:41:46.687Z,45.18
2024-05-09T15:44:15.934Z,45.67
2024-05-09T15:46:45.203Z,50.79
2024-05-09T15:49:15.359Z,48.20
2024-05-09T15:51:44.819Z,47.55
2024-05-09T15:54:14.198Z,44.40
2024-05-09T15:56:45.199Z,46.51
2024-05-09T15:59:14.614Z,44.54
2024-05-09T16:01:43.983Z,43.20
2024-05-09T16:04:14.862Z,45.80
2024-05-09T16:06:45.893Z,45.17
2024-05-09T16:09:15.715Z,45.50
2024-05-09T16:11:44.994Z,46.78
2024-05-09T16:14:15.979Z,45.39
2024-05-09T16:16:45.424Z,45.23
2024-05-09T16:19:14.938Z,46.74
2024-05-09T16:21:44.372Z,44.10
2024-05-09T16:24:13.652Z,45.61
2024-05-09T16:26:43.702Z,45.05
2024-05-09T16:29:13.056Z,45.49
2024-05-09T16:31:42.332Z,43.53
2024-05-09T16:34:11.702Z,43.03
2024-05-09T16:36:41.389Z,44.25
2024-05-09T16:39:10.794Z,44.40
2024-05-09T16:41:40.053Z,45.87
2024-05-09T16:44:09.312Z,44.14
2024-05-09T16:46:38.572Z,45.41
2024-05-09T16:49:08.914Z,46.37
2024-05-09T16:51:38.319Z,45.94
2024-05-09T16:54:07.565Z,47.53
2024-05-09T16:56:36.977Z,47.87
2024-05-09T16:59:06.324Z,48.00
2024-05-09T17:01:35.750Z,48.58
2024-05-09T17:04:05.569Z,49.45
2024-05-09T17:06:35.110Z,50.14
2024-05-09T17:09:08.615Z,49.56
2024-05-09T17:11:35.953Z,49.62
2024-05-09T17:14:05.227Z,49.93
2024-05-09T17:16:35.296Z,50.63
2024-05-09T17:19:04.758Z,51.00
2024-05-09T17:21:34.131Z,50.17
2024-05-09T17:24:03.418Z,52.14
2024-05-09T17:26:32.904Z,53.40
2024-05-09T17:29:02.225Z,54.61
2024-05-09T17:31:31.557Z,54.61
2024-05-09T17:34:01.039Z,56.42
2024-05-09T17:36:30.403Z,57.56
2024-05-09T17:38:59.677Z,58.30
2024-05-09T17:41:28.944Z,59.36
2024-05-09T17:43:58.203Z,59.67
2024-05-09T17:46:27.490Z,60.60
2024-05-09T17:48:58.784Z,61.22
2024-05-09T17:51:27.900Z,61.61
2024-05-09T17:53:57.188Z,61.86
2024-05-09T17:56:26.787Z,63.07
2024-05-09T17:58:56.104Z,63.16
2024-05-09T18:01:25.621Z,63.65
2024-05-09T18:03:55.196Z,65.32
2024-05-09T18:06:24.758Z,65.51
2024-05-09T18:08:54.607Z,65.51
2024-05-09T18:11:23.943Z,66.32
2024-05-09T18:13:54.121Z,66.65
2024-05-09T18:16:23.557Z,68.35
2024-05-09T18:18:53.198Z,68.51
2024-05-09T18:21:22.654Z,68.78
2024-05-09T18:23:54.003Z,68.78
2024-05-09T18:26:24.142Z,68.25
2024-05-09T18:28:53.486Z,68.58
2024-05-09T18:31:22.759Z,69.41
2024-05-09T18:33:52.398Z,71.40
2024-05-09T18:36:21.919Z,71.40
2024-05-09T18:38:51.206Z,71.76
2024-05-09T18:41:21.428Z,72.84
2024-05-09T18:43:51.287Z,73.23
2024-05-09T18:46:20.678Z,73.23
2024-05-09T18:48:50.111Z,73.38
2024-05-09T18:51:19.617Z,75.50
2024-05-09T18:53:50.532Z,74.05
2024-05-09T18:56:19.843Z,74.40
2024-05-09T18:58:49.145Z,74.40
2024-05-09T19:01:18.632Z,75.82
2024-05-09T19:03:48.361Z,74.94
2024-05-09T19:06:19.725Z,75.85
2024-05-09T19:08:49.011Z,76.89
2024-05-09T19:11:21.274Z,77.26
2024-05-09T19:13:50.577Z,79.76
2024-05-09T19:16:20.079Z,79.68
2024-05-09T19:18:51.351Z,79.63
2024-05-09T19:21:20.887Z,78.68
2024-05-09T19:23:52.389Z,78.68
2024-05-09T19:26:21.366Z,78.75
2024-05-09T19:28:50.852Z,78.17
2024-05-09T19:31:20.444Z,78.62
2024-05-09T19:33:49.885Z,77.89
2024-05-09T19:36:19.390Z,78.85
2024-05-09T19:38:50.319Z,78.61
2024-05-09T19:41:19.729Z,78.23
2024-05-09T19:43:49.012Z,78.29
2024-05-09T19:46:18.682Z,78.42
2024-05-09T19:48:48.238Z,78.04
2024-05-09T19:51:17.626Z,78.10
2024-05-09T19:53:46.977Z,77.92
2024-05-09T19:56:16.224Z,78.12
2024-05-09T19:58:46.054Z,78.57
2024-05-09T20:01:15.511Z,79.82
2024-05-09T20:03:45.073Z,79.61
2024-05-09T20:06:14.421Z,79.45
2024-05-09T20:08:43.681Z,79.85
2024-05-09T20:11:14.292Z,80.00
2024-05-09T20:13:43.643Z,80.02
2024-05-09T20:16:13.051Z,79.76
2024-05-09T20:18:42.534Z,80.23
2024-05-09T20:21:11.947Z,80.10
2024-05-09T20:23:41.273Z,79.94
2024-05-09T20:26:10.633Z,80.22
2024-05-09T20:28:39.920Z,80.53
2024-05-09T20:31:09.720Z,80.86
2024-05-09T20:33:39.290Z,81.35
2024-05-09T20:36:08.777Z,80.89
2024-05-09T20:38:38.034Z,80.60
2024-05-09T20:41:07.319Z,80.50
2024-05-09T20:43:36.574Z,80.37
2024-05-09T20:46:06.140Z,80.27
2024-05-09T20:48:35.619Z,80.30
2024-05-09T20:51:05.195Z,80.35
2024-05-09T20:53:34.426Z,80.29
2024-05-09T20:56:03.709Z,80.82
2024-05-09T20:58:33.079Z,80.28
2024-05-09T21:01:02.598Z,79.79
2024-05-09T21:03:32.413Z,80.13
2024-05-09T21:06:01.864Z,79.88
2024-05-09T21:08:31.092Z,79.61
2024-05-09T21:11:00.520Z,79.51
2024-05-09T21:13:29.857Z,79.49
2024-05-09T21:15:59.384Z,79.20
2024-05-09T21:18:28.711Z,79.23
2024-05-09T21:20:58.063Z,78.64
2024-05-09T21:23:27.294Z,79.03
2024-05-09T21:25:56.576Z,78.64
2024-05-09T21:28:25.958Z,78.58
2024-05-09T21:30:55.408Z,78.36
2024-05-09T21:33:24.876Z,78.34
2024-05-09T21:35:56.035Z,77.96
2024-05-09T21:38:25.353Z,78.48
2024-05-09T21:40:54.666Z,78.42
2024-05-09T21:43:25.787Z,78.46
2024-05-09T21:45:55.178Z,78.89
2024-05-09T21:48:24.536Z,78.70
2024-05-09T21:50:53.841Z,79.40
2024-05-09T21:53:23.115Z,79.07
2024-05-09T21:55:52.494Z,79.34
2024-05-09T21:58:22.021Z,79.66
2024-05-09T22:00:51.493Z,79.62
2024-05-09T22:03:20.972Z,80.32
2024-05-09T22:05:50.288Z,81.28
2024-05-09T22:08:19.682Z,80.45
2024-05-09T22:10:49.225Z,80.43
2024-05-09T22:13:20.012Z,80.02
2024-05-09T22:15:49.393Z,79.73
2024-05-09T22:18:18.873Z,80.54
2024-05-09T22:20:48.229Z,81.40
2024-05-09T22:23:17.498Z,82.03
2024-05-09T22:25:46.768Z,81.96
2024-05-09T22:28:16.337Z,80.89
2024-05-09T22:30:47.027Z,81.53
2024-05-09T22:33:17.115Z,81.92
2024-05-09T22:35:47.751Z,81.36
2024-05-09T22:38:17.046Z,82.18
2024-05-09T22:40:49.236Z,81.87
2024-05-09T22:43:23.868Z,81.88
2024-05-09T22:45:54.184Z,82.08
2024-05-09T22:48:24.747Z,81.80
2024-05-09T22:50:55.037Z,81.22
2024-05-09T22:53:26.405Z,81.68
2024-05-09T22:55:55.734Z,81.50
2024-05-09T22:58:25.133Z,81.86
2024-05-09T23:00:54.678Z,82.55
2024-05-09T23:03:24.306Z,82.79
2024-05-09T23:05:53.665Z,81.98
2024-05-09T23:08:22.981Z,82.52
2024-05-09T23:10:52.403Z,82.52
2024-05-09T23:13:22.277Z,82.90
2024-05-09T23:15:51.758Z,82.99
2024-05-09T23:18:21.205Z,83.46
2024-05-09T23:20:51.566Z,82.86
2024-05-09T23:23:21.087Z,82.79
2024-05-09T23:25:50.508Z,83.47
2024-05-09T23:28:19.871Z,83.67
2024-05-09T23:30:49.167Z,83.58
2024-05-09T23:33:18.649Z,83.59
2024-05-09T23:35:48.045Z,83.49
2024-05-09T23:38:18.421Z,83.57
2024-05-09T23:40:48.295Z,83.21
2024-05-09T23:43:17.627Z,83.07
2024-05-09T23:45:47.059Z,83.22
2024-05-09T23:48:16.547Z,83.14
2024-05-09T23:50:45.847Z,84.01
2024-05-09T23:53:15.151Z,84.86
2024-05-09T23:55:44.509Z,85.57
2024-05-09T23:58:13.904Z,86.04
